Time;durP1;ratioP1;P1;durP2;ratioP2;P2;SDS_P1;SDS_P2;PMS_P1;PMS_P2;Temp;Humidity;BMP_temperature;BMP_pressure;BME280_temperature;BME280_humidity;BME280_pressure;Samples;Min_cycle;Max_cycle;Signal;HPM_P1;HPM_P2
2022/12/30 00:00:06;;;;;;;;;;;16.70;65.70;;;;;;10248954;28;94358;-63
2022/12/30 00:05:08;;;;;;;;;;;16.70;65.70;;;;;;10245874;28;96830;-63
2022/12/30 00:10:09;;;;;;;;;;;16.70;65.60;;;;;;10247490;28;92952;-63
2022/12/30 00:36:38;;;;;;;;;;;16.60;65.40;;;;;;10247591;28;92532;-64
2022/12/30 00:47:01;;;;;;;;;;;16.60;65.30;;;;;;10247785;28;92907;-64
2022/12/30 00:57:22;;;;;;;;;;;16.50;65.20;;;;;;10244523;28;95904;-63
2022/12/30 01:02:24;;;;;;;;;;;16.50;65.20;;;;;;10246381;28;93348;-64
2022/12/30 01:07:27;;;;;;;;;;;16.50;65.20;;;;;;10246531;28;94403;-63
2022/12/30 01:12:29;;;;;;;;;;;16.50;65.20;;;;;;10245439;28;93508;-64
2022/12/30 01:17:31;;;;;;;;;;;16.50;65.10;;;;;;10246341;28;93521;-64
2022/12/30 01:22:33;;;;;;;;;;;16.50;65.00;;;;;;10245782;28;94492;-64
2022/12/30 01:27:34;;;;;;;;;;;16.50;65.00;;;;;;10244899;28;93232;-63
2022/12/30 01:32:36;;;;;;;;;;;16.40;64.80;;;;;;10246261;28;92739;-62
2022/12/30 01:37:38;;;;;;;;;;;16.40;64.70;;;;;;10249929;28;94619;-62
2022/12/30 01:42:40;;;;;;;;;;;16.40;65.00;;;;;;10252529;28;93328;-63
2022/12/30 01:48:14;;;;;;;;;;;16.40;64.80;;;;;;10249477;28;96908;-64
2022/12/30 01:53:18;;;;;;;;;;;16.40;64.80;;;;;;10240465;28;94457;-62
2022/12/30 01:58:24;;;;;;;;;;;16.40;64.70;;;;;;10251963;28;93437;-63
2022/12/30 02:03:31;;;;;;;;;;;16.40;64.70;;;;;;10658860;22;94538;-62
2022/12/30 02:08:36;;;;;;;;;;;16.40;64.50;;;;;;10255902;28;92734;-63
2022/12/30 02:13:38;;;;;;;;;;;16.40;64.60;;;;;;10255707;28;93219;-63
2022/12/30 02:19:00;;;;;;;;;;;16.40;64.50;;;;;;10254993;28;93198;-63
2022/12/30 02:24:20;;;;;;;;;;;16.30;64.40;;;;;;10256006;28;93800;-63
2022/12/30 02:29:32;;;;;;;;;;;16.30;64.40;;;;;;10254778;28;94513;-63
2022/12/30 02:34:43;;;;;;;;;;;16.30;64.40;;;;;;10255437;28;92985;-63
2022/12/30 02:39:50;;;;;;;;;;;16.30;64.20;;;;;;10251690;28;97114;-63
2022/12/30 02:44:56;;;;;;;;;;;16.30;64.40;;;;;;10255590;28;94390;-63
2022/12/30 02:55:22;;;;;;;;;;;16.30;64.10;;;;;;10252586;28;93988;-63
2022/12/30 03:05:46;;;;;;;;;;;16.20;64.00;;;;;;10250963;28;94477;-63
2022/12/30 03:16:16;;;;;;;;;;;16.20;63.90;;;;;;10253796;28;93615;-62
2022/12/30 03:21:20;;;;;;;;;;;16.20;63.80;;;;;;10268317;28;93399;-64
2022/12/30 03:31:42;;;;;;;;;;;16.20;64.00;;;;;;10250924;28;95891;-63
2022/12/30 03:36:46;;;;;;;;;;;16.20;64.00;;;;;;10253475;28;93375;-63
2022/12/30 03:41:49;;;;;;;;;;;16.20;63.90;;;;;;10253944;28;92637;-63
2022/12/30 03:46:50;;;;;;;;;;;16.20;63.90;;;;;;10251881;28;92616;-63
2022/12/30 03:51:52;;;;;;;;;;;16.20;63.90;;;;;;10252403;28;94770;-62
2022/12/30 03:56:54;;;;;;;;;;;16.20;63.80;;;;;;10251984;28;94656;-62
2022/12/30 04:01:56;;;;;;;;;;;16.10;63.50;;;;;;10251878;28;94579;-62
2022/12/30 04:06:57;;;;;;;;;;;16.10;63.60;;;;;;10252077;28;92720;-62
2022/12/30 04:11:59;;;;;;;;;;;16.10;63.50;;;;;;10251587;28;93488;-63
2022/12/30 04:17:01;;;;;;;;;;;16.10;63.40;;;;;;10266326;28;94629;-62
2022/12/30 04:22:02;;;;;;;;;;;16.10;63.30;;;;;;10248052;28;96837;-63
2022/12/30 04:27:04;;;;;;;;;;;16.10;63.50;;;;;;10251405;28;93834;-63
2022/12/30 04:32:06;;;;;;;;;;;16.10;63.50;;;;;;10251428;28;93457;-63
2022/12/30 04:37:08;;;;;;;;;;;16.10;63.20;;;;;;10250474;28;94543;-63
2022/12/30 04:42:09;;;;;;;;;;;16.00;63.30;;;;;;10251330;28;94235;-63
2022/12/30 06:04:38;;;;;;;;;;;16.50;61.80;;;;;;10217836;28;92921;-64
2022/12/30 06:09:40;;;;;;;;;;;16.80;61.00;;;;;;10247072;28;94139;-64
2022/12/30 06:14:41;;;;;;;;;;;16.90;60.70;;;;;;10246698;28;93509;-63
2022/12/30 06:19:48;;;;;;;;;;;16.90;60.50;;;;;;10243131;28;95907;-64
2022/12/30 06:24:49;;;;;;;;;;;16.90;60.60;;;;;;10253634;28;94573;-63
2022/12/30 06:29:51;;;;;;;;;;;16.90;60.70;;;;;;10253075;28;93529;-63
2022/12/30 06:34:53;;;;;;;;;;;16.80;60.90;;;;;;10253791;28;93358;-62
2022/12/30 06:39:54;;;;;;;;;;;16.80;61.10;;;;;;10253474;28;93444;-63
2022/12/30 06:44:56;;;;;;;;;;;16.70;61.20;;;;;;10252841;28;94494;-63
2022/12/30 06:49:58;;;;;;;;;;;16.70;61.30;;;;;;10252964;28;92537;-62
2022/12/30 06:55:00;;;;;;;;;;;16.70;61.30;;;;;;10252937;28;92795;-62
2022/12/30 07:00:03;;;;;;;;;;;16.60;61.50;;;;;;10249621;28;93667;-63
2022/12/30 07:05:05;;;;;;;;;;;16.60;61.60;;;;;;10266630;28;94509;-63
2022/12/30 07:10:07;;;;;;;;;;;16.50;61.70;;;;;;10250386;28;96296;-63
2022/12/30 07:15:09;;;;;;;;;;;16.50;62.00;;;;;;10252707;28;94374;-63
2022/12/30 07:20:12;;;;;;;;;;;16.50;62.40;;;;;;10252143;28;93467;-62
2022/12/30 07:25:14;;;;;;;;;;;16.50;62.40;;;;;;10252070;28;93561;-63
2022/12/30 07:30:15;;;;;;;;;;;16.50;62.50;;;;;;10252232;28;94252;-62
2022/12/30 07:35:17;;;;;;;;;;;16.50;62.60;;;;;;10250590;28;94381;-63
2022/12/30 07:40:19;;;;;;;;;;;16.50;62.70;;;;;;10251911;28;93327;-62
2022/12/30 07:45:21;;;;;;;;;;;16.50;63.00;;;;;;10251692;28;93722;-63
2022/12/30 07:50:22;;;;;;;;;;;16.40;63.10;;;;;;10250702;28;93418;-62
2022/12/30 07:55:24;;;;;;;;;;;16.40;63.10;;;;;;10251450;28;94486;-63
2022/12/30 08:00:26;;;;;;;;;;;16.50;63.20;;;;;;10263708;28;96850;-62
2022/12/30 08:05:27;;;;;;;;;;;16.50;63.20;;;;;;10250029;28;93441;-63
2022/12/30 08:10:29;;;;;;;;;;;16.50;63.30;;;;;;10251586;28;94467;-62
2022/12/30 08:15:31;;;;;;;;;;;16.50;63.80;;;;;;10251005;28;94452;-62
2022/12/30 08:20:32;;;;;;;;;;;16.50;64.00;;;;;;10248555;28;93891;-62
2022/12/30 08:25:34;;;;;;;;;;;16.40;63.80;;;;;;10246891;28;93679;-62
2022/12/30 08:30:37;;;;;;;;;;;16.40;64.80;;;;;;10247709;28;93470;-61
2022/12/30 08:35:39;;;;;;;;;;;16.50;63.80;;;;;;10250509;28;92418;-61
2022/12/30 08:40:40;;;;;;;;;;;16.50;63.60;;;;;;10251156;28;97004;-62
2022/12/30 08:45:42;;;;;;;;;;;16.50;63.80;;;;;;10249959;28;93671;-62
2022/12/30 08:50:44;;;;;;;;;;;16.50;63.80;;;;;;10247587;28;98327;-64
2022/12/30 08:55:46;;;;;;;;;;;16.50;63.80;;;;;;10263031;28;94466;-61
2022/12/30 09:00:47;;;;;;;;;;;16.50;64.90;;;;;;10249181;28;94424;-62
2022/12/30 09:05:52;;;;;;;;;;;16.50;66.00;;;;;;10246530;28;94201;-62
2022/12/30 09:11:03;;;;;;;;;;;16.50;66.00;;;;;;10245526;28;93495;-61
2022/12/30 09:16:06;;;;;;;;;;;16.60;66.20;;;;;;10245614;28;94520;-61
2022/12/30 09:21:08;;;;;;;;;;;16.60;66.30;;;;;;10245785;28;93922;-62
2022/12/30 09:26:13;;;;;;;;;;;16.60;66.10;;;;;;10244062;28;93840;-62
2022/12/30 09:31:15;;;;;;;;;;;16.60;65.90;;;;;;10258508;28;94093;-64
2022/12/30 09:36:18;;;;;;;;;;;16.50;65.60;;;;;;10243496;28;93476;-62
2022/12/30 09:46:49;;;;;;;;;;;16.40;65.00;;;;;;10244970;28;93505;-63
2022/12/30 09:51:54;;;;;;;;;;;16.40;65.00;;;;;;10244497;28;93693;-63
2022/12/30 09:57:30;;;;;;;;;;;16.30;64.80;;;;;;10248001;28;94845;-63
2022/12/30 10:02:20;;;;;;;;;;;16.30;64.70;;;;;;10185723;28;1916848;-63
2022/12/30 10:07:25;;;;;;;;;;;16.30;64.60;;;;;;10255234;28;93458;-63
2022/12/30 10:12:39;;;;;;;;;;;16.30;64.40;;;;;;10254518;28;94465;-62
2022/12/30 10:17:57;;;;;;;;;;;16.30;64.10;;;;;;10255575;28;93717;-62
2022/12/30 10:23:07;;;;;;;;;;;16.40;63.80;;;;;;10269537;28;94232;-63
2022/12/30 10:28:12;;;;;;;;;;;16.50;63.60;;;;;;10254748;28;94493;-63
2022/12/30 10:33:18;;;;;;;;;;;16.50;63.30;;;;;;10251848;28;96973;-64
2022/12/30 10:38:25;;;;;;;;;;;16.50;63.20;;;;;;10254277;28;93395;-63
2022/12/30 10:43:49;;;;;;;;;;;16.50;63.00;;;;;;10254115;28;94464;-63
2022/12/30 10:48:57;;;;;;;;;;;16.50;62.80;;;;;;10253446;28;94462;-63
2022/12/30 10:53:59;;;;;;;;;;;16.60;62.80;;;;;;10253806;28;93131;-62
2022/12/30 10:59:12;;;;;;;;;;;16.60;62.60;;;;;;10251591;28;94478;-62
2022/12/30 11:04:33;;;;;;;;;;;16.70;62.50;;;;;;10267442;28;93298;-63
2022/12/30 11:09:35;;;;;;;;;;;16.90;62.40;;;;;;10269386;28;92804;-63
2022/12/30 11:14:58;;;;;;;;;;;17.10;62.00;;;;;;10252848;28;93350;-63
2022/12/30 11:20:05;;;;;;;;;;;17.20;61.60;;;;;;10253297;28;93091;-63
2022/12/30 11:25:16;;;;;;;;;;;17.30;61.20;;;;;;10250039;28;96733;-62
2022/12/30 11:30:25;;;;;;;;;;;17.30;60.90;;;;;;10252585;28;93197;-63
2022/12/30 11:35:31;;;;;;;;;;;17.40;60.80;;;;;;10251874;28;93679;-62
2022/12/30 11:40:36;;;;;;;;;;;17.40;60.70;;;;;;10252152;28;94447;-63
2022/12/30 11:45:39;;;;;;;;;;;17.40;60.60;;;;;;10253807;28;93636;-63
2022/12/30 11:50:48;;;;;;;;;;;17.40;60.40;;;;;;10251731;28;93527;-63
2022/12/30 11:55:50;;;;;;;;;;;17.40;60.20;;;;;;10267294;28;93519;-63
2022/12/30 12:01:02;;;;;;;;;;;17.40;60.20;;;;;;10252178;28;92872;-63
2022/12/30 12:06:08;;;;;;;;;;;17.40;60.20;;;;;;10251391;28;93298;-64
2022/12/30 12:11:14;;;;;;;;;;;17.50;60.20;;;;;;10252396;28;94560;-63
2022/12/30 12:16:22;;;;;;;;;;;17.50;60.00;;;;;;10249244;28;96413;-63
2022/12/30 12:21:26;;;;;;;;;;;17.60;59.90;;;;;;10251333;28;94047;-63
2022/12/30 12:26:33;;;;;;;;;;;17.60;59.80;;;;;;10251400;28;93143;-63
2022/12/30 12:31:41;;;;;;;;;;;17.60;59.70;;;;;;10265837;28;93655;-63
2022/12/30 12:37:02;;;;;;;;;;;17.50;59.80;;;;;;10251198;28;96923;-64
2022/12/30 12:42:13;;;;;;;;;;;17.60;59.80;;;;;;10250304;28;93275;-63
2022/12/30 12:47:18;;;;;;;;;;;17.70;59.70;;;;;;10251481;28;94638;-63
2022/12/30 12:52:19;;;;;;;;;;;17.70;59.50;;;;;;10252177;28;91804;-64
2022/12/30 12:57:34;;;;;;;;;;;17.70;59.30;;;;;;10265737;28;92951;-63
2022/12/30 13:02:54;;;;;;;;;;;17.70;59.40;;;;;;10249379;28;93831;-63
2022/12/30 13:07:59;;;;;;;;;;;17.60;59.40;;;;;;10247291;28;96883;-61
2022/12/30 13:13:39;;;;;;;;;;;17.60;59.60;;;;;;10261719;28;93795;-62
2022/12/30 13:18:43;;;;;;;;;;;17.60;59.60;;;;;;10250198;28;94527;-62
2022/12/30 13:23:49;;;;;;;;;;;17.70;59.60;;;;;;10248303;28;93444;-62
2022/12/30 13:28:56;;;;;;;;;;;17.80;59.50;;;;;;10264029;28;93658;-63
2022/12/30 13:34:13;;;;;;;;;;;17.80;59.30;;;;;;10254448;28;93629;-63
2022/12/30 13:39:30;;;;;;;;;;;17.80;59.10;;;;;;10256684;28;93332;-63
2022/12/30 13:44:39;;;;;;;;;;;17.70;59.20;;;;;;10272308;28;93776;-63
2022/12/30 13:49:40;;;;;;;;;;;17.70;59.50;;;;;;10256219;28;94127;-63
2022/12/30 13:54:49;;;;;;;;;;;17.60;59.70;;;;;;10256436;28;94618;-63
2022/12/30 14:00:05;;;;;;;;;;;17.60;59.80;;;;;;10252662;28;95395;-63
2022/12/30 14:05:27;;;;;;;;;;;17.60;59.70;;;;;;10255470;28;94528;-63
2022/12/30 14:10:39;;;;;;;;;;;17.70;59.60;;;;;;10254448;28;94253;-63
2022/12/30 14:15:41;;;;;;;;;;;17.60;59.50;;;;;;10255808;28;93126;-63
2022/12/30 14:20:56;;;;;;;;;;;17.60;59.60;;;;;;10254835;28;93779;-63
2022/12/30 14:26:18;;;;;;;;;;;17.50;59.70;;;;;;10270335;28;93714;-63
2022/12/30 14:31:22;;;;;;;;;;;17.50;59.90;;;;;;10254646;28;93449;-63
2022/12/30 14:36:25;;;;;;;;;;;17.40;60.10;;;;;;10255805;28;92965;-63
2022/12/30 14:41:33;;;;;;;;;;;17.40;60.20;;;;;;10253884;28;94651;-63
2022/12/30 14:46:48;;;;;;;;;;;17.50;60.10;;;;;;10270042;28;94670;-62
2022/12/30 14:52:09;;;;;;;;;;;17.50;60.10;;;;;;10252216;28;95890;-63
2022/12/30 14:57:22;;;;;;;;;;;17.40;60.20;;;;;;10254496;28;93811;-63
2022/12/30 15:02:25;;;;;;;;;;;17.30;60.40;;;;;;10253036;28;93641;-63
2022/12/30 15:07:34;;;;;;;;;;;17.30;60.60;;;;;;10253493;28;93538;-62
2022/12/30 15:12:36;;;;;;;;;;;17.30;60.70;;;;;;10268587;28;93708;-62
2022/12/30 15:17:37;;;;;;;;;;;17.30;60.80;;;;;;10252574;28;92582;-62
2022/12/30 15:22:41;;;;;;;;;;;17.20;60.90;;;;;;10253282;28;93293;-62
2022/12/30 15:27:45;;;;;;;;;;;17.20;61.00;;;;;;10253708;28;92848;-62
2022/12/30 15:32:56;;;;;;;;;;;17.10;61.10;;;;;;10252677;28;93556;-62
2022/12/30 15:37:58;;;;;;;;;;;17.10;61.30;;;;;;10252229;28;93392;-62
2022/12/30 15:43:04;;;;;;;;;;;17.00;61.30;;;;;;10249290;28;96022;-64
2022/12/30 15:48:29;;;;;;;;;;;17.00;61.50;;;;;;10252417;28;93542;-63
2022/12/30 15:53:33;;;;;;;;;;;16.90;61.60;;;;;;10251696;28;94293;-63
2022/12/30 15:58:40;;;;;;;;;;;16.90;61.70;;;;;;10250938;28;94103;-63
2022/12/30 16:03:54;;;;;;;;;;;16.80;61.90;;;;;;10252125;28;93439;-62
2022/12/30 16:08:56;;;;;;;;;;;16.80;62.00;;;;;;10251608;28;93654;-63
2022/12/30 16:14:16;;;;;;;;;;;16.70;62.10;;;;;;10251342;28;93540;-63
2022/12/30 16:19:19;;;;;;;;;;;16.70;62.20;;;;;;10250754;28;92623;-64
2022/12/30 16:24:28;;;;;;;;;;;16.60;62.60;;;;;;10250466;28;94220;-64
2022/12/30 16:29:31;;;;;;;;;;;16.70;63.60;;;;;;10249415;28;94447;-62
2022/12/30 16:34:33;;;;;;;;;;;16.80;63.80;;;;;;10247162;28;96825;-64
2022/12/30 16:39:35;;;;;;;;;;;16.90;64.70;;;;;;10248766;28;94065;-63
2022/12/30 16:44:36;;;;;;;;;;;17.10;66.50;;;;;;10249094;28;94543;-61
2022/12/30 16:49:38;;;;;;;;;;;17.30;65.00;;;;;;10249654;28;94617;-64
2022/12/30 16:54:40;;;;;;;;;;;17.60;66.00;;;;;;10250125;28;93494;-62
2022/12/30 16:59:41;;;;;;;;;;;17.90;64.40;;;;;;10250259;28;94553;-63
2022/12/30 17:05:03;;;;;;;;;;;18.10;63.90;;;;;;10249185;28;93154;-62
2022/12/30 17:15:26;;;;;;;;;;;18.50;63.60;;;;;;10249514;28;93562;-62
2022/12/30 17:20:27;;;;;;;;;;;18.60;63.10;;;;;;10248109;28;93221;-62
2022/12/30 17:25:31;;;;;;;;;;;18.70;63.20;;;;;;10246583;28;95851;-62
2022/12/30 17:30:33;;;;;;;;;;;18.80;63.50;;;;;;10249381;28;94461;-63
2022/12/30 17:35:36;;;;;;;;;;;19.50;62.60;;;;;;10247868;28;94485;-62
2022/12/30 17:40:38;;;;;;;;;;;19.40;63.30;;;;;;10248345;28;94334;-62
2022/12/30 17:45:40;;;;;;;;;;;19.20;63.30;;;;;;10248388;28;94536;-62
2022/12/30 17:50:42;;;;;;;;;;;19.10;63.60;;;;;;10248578;28;93611;-62
2022/12/30 17:55:44;;;;;;;;;;;19.00;63.80;;;;;;10248152;28;94386;-62
2022/12/30 18:00:46;;;;;;;;;;;19.00;64.00;;;;;;10248224;28;94643;-62
2022/12/30 18:05:49;;;;;;;;;;;18.90;64.20;;;;;;10247056;28;93511;-62
2022/12/30 18:11:09;;;;;;;;;;;18.70;64.40;;;;;;10244988;28;93478;-61
2022/12/30 18:16:12;;;;;;;;;;;18.70;64.60;;;;;;10245113;28;95857;-62
2022/12/30 18:21:18;;;;;;;;;;;18.70;64.80;;;;;;10254140;28;93496;-62
2022/12/30 18:26:23;;;;;;;;;;;18.80;64.70;;;;;;10254258;28;94128;-62
2022/12/30 18:31:26;;;;;;;;;;;18.80;64.70;;;;;;10253427;28;93188;-62
2022/12/30 18:36:28;;;;;;;;;;;18.70;64.80;;;;;;10253541;28;93423;-62
2022/12/30 18:41:30;;;;;;;;;;;18.70;65.00;;;;;;10268598;28;93933;-62
2022/12/30 18:46:33;;;;;;;;;;;18.60;65.20;;;;;;10253565;28;94470;-62
2022/12/30 18:51:35;;;;;;;;;;;18.50;65.20;;;;;;10252483;28;92583;-62
2022/12/30 18:56:37;;;;;;;;;;;18.40;65.30;;;;;;10253622;28;93461;-61
2022/12/30 19:01:39;;;;;;;;;;;18.40;65.40;;;;;;10252272;28;93854;-62
2022/12/30 19:06:42;;;;;;;;;;;18.30;65.40;;;;;;10249739;28;96162;-62
2022/12/30 19:11:44;;;;;;;;;;;18.20;65.50;;;;;;10252187;28;93500;-62
2022/12/30 19:16:51;;;;;;;;;;;18.20;65.50;;;;;;10252290;28;94641;-62
2022/12/30 19:21:56;;;;;;;;;;;18.20;67.00;;;;;;10252016;28;93492;-61
2022/12/30 19:26:58;;;;;;;;;;;18.30;65.80;;;;;;10252025;28;94882;-62
2022/12/30 19:32:00;;;;;;;;;;;18.40;65.40;;;;;;10251083;28;94966;-62
2022/12/30 19:37:02;;;;;;;;;;;18.50;65.10;;;;;;10252337;28;94424;-62
2022/12/30 19:42:04;;;;;;;;;;;18.60;64.80;;;;;;10267142;28;92295;-62
2022/12/30 19:47:06;;;;;;;;;;;18.70;65.00;;;;;;10251980;28;93568;-62
2022/12/30 19:52:08;;;;;;;;;;;18.70;64.90;;;;;;10252430;28;93961;-61
2022/12/30 19:57:09;;;;;;;;;;;18.70;65.00;;;;;;10248807;28;96645;-62
2022/12/30 20:02:11;;;;;;;;;;;18.70;64.90;;;;;;10250278;28;93718;-62
2022/12/30 20:07:13;;;;;;;;;;;18.70;65.10;;;;;;10250169;28;94418;-63
2022/12/30 20:12:23;;;;;;;;;;;18.70;65.00;;;;;;10251332;28;94421;-62
2022/12/30 20:17:24;;;;;;;;;;;18.60;65.00;;;;;;10251262;28;94367;-62
2022/12/30 20:22:26;;;;;;;;;;;18.60;65.00;;;;;;10249275;28;94508;-62
2022/12/30 20:27:28;;;;;;;;;;;18.70;65.10;;;;;;10246588;28;93470;-63
2022/12/30 20:32:30;;;;;;;;;;;18.70;65.00;;;;;;10248844;28;93617;-62
2022/12/30 20:37:31;;;;;;;;;;;18.80;64.80;;;;;;10249382;28;94511;-62
2022/12/30 20:42:33;;;;;;;;;;;18.80;64.80;;;;;;10249472;28;93647;-63
2022/12/30 20:47:35;;;;;;;;;;;18.70;65.80;;;;;;10247792;28;95717;-62
2022/12/30 20:52:37;;;;;;;;;;;18.70;65.00;;;;;;10249585;28;94106;-62
2022/12/30 20:57:38;;;;;;;;;;;18.60;65.00;;;;;;10250405;28;93236;-62
2022/12/30 21:02:40;;;;;;;;;;;18.50;65.20;;;;;;10263353;28;94126;-62
2022/12/30 21:07:42;;;;;;;;;;;18.40;65.30;;;;;;10250211;28;93471;-62
2022/12/30 21:12:44;;;;;;;;;;;18.30;65.50;;;;;;10249216;28;93500;-63
2022/12/30 21:17:46;;;;;;;;;;;18.20;65.70;;;;;;10249274;28;94299;-62
2022/12/30 21:22:47;;;;;;;;;;;18.20;65.80;;;;;;10250035;28;93698;-62
2022/12/30 21:27:49;;;;;;;;;;;18.10;65.90;;;;;;10248435;28;93264;-63
2022/12/30 21:32:51;;;;;;;;;;;18.00;66.00;;;;;;10240554;28;93755;-63
2022/12/30 22:02:43;;;;;;;;;;;18.00;66.20;;;;;;10243847;28;96857;-62
2022/12/30 22:04:52;;;;;;;;;;;17.70;67.00;;;;;;10255323;28;94473;-62
2022/12/30 22:09:53;;;;;;;;;;;17.70;67.10;;;;;;10270260;28;93307;-62
2022/12/30 22:14:55;;;;;;;;;;;17.70;67.20;;;;;;10255770;28;92700;-62
2022/12/30 22:19:57;;;;;;;;;;;17.60;67.30;;;;;;10253514;28;94796;-62
2022/12/30 22:24:58;;;;;;;;;;;17.60;67.50;;;;;;10254582;28;93583;-62
2022/12/30 22:30:00;;;;;;;;;;;17.60;67.70;;;;;;10251982;28;95865;-62
2022/12/30 22:35:02;;;;;;;;;;;17.60;67.80;;;;;;10254344;28;93238;-62
2022/12/30 22:40:04;;;;;;;;;;;17.50;67.80;;;;;;10254523;28;93218;-62
2022/12/30 22:45:06;;;;;;;;;;;17.50;67.80;;;;;;10255021;28;93461;-62
2022/12/30 22:50:08;;;;;;;;;;;17.50;68.00;;;;;;10252845;28;92615;-63
2022/12/30 22:55:18;;;;;;;;;;;17.40;68.10;;;;;;10253813;28;93120;-63
2022/12/30 23:00:20;;;;;;;;;;;17.40;68.20;;;;;;10253230;28;94498;-62
2022/12/30 23:05:22;;;;;;;;;;;17.40;68.30;;;;;;10254341;28;93751;-63
2022/12/30 23:10:23;;;;;;;;;;;17.40;68.50;;;;;;10253714;28;94299;-63
2022/12/30 23:20:45;;;;;;;;;;;17.40;68.60;;;;;;10249889;28;96915;-62
2022/12/30 23:25:47;;;;;;;;;;;17.30;68.70;;;;;;10253224;28;94600;-62
2022/12/30 23:30:49;;;;;;;;;;;17.30;68.70;;;;;;10252123;28;93514;-62
2022/12/30 23:35:50;;;;;;;;;;;17.30;68.90;;;;;;10252352;28;93395;-63
2022/12/30 23:40:52;;;;;;;;;;;17.30;68.90;;;;;;10251814;28;93897;-63
2022/12/30 23:45:54;;;;;;;;;;;17.20;68.90;;;;;;10252442;28;93339;-63
2022/12/30 23:50:56;;;;;;;;;;;17.20;69.00;;;;;;10252265;28;94532;-61
2022/12/30 23:56:03;;;;;;;;;;;17.20;69.10;;;;;;10252139;28;92665;-63
